Time;durP1;ratioP1;P1;durP2;ratioP2;P2;SDS_P1;SDS_P2;PMS_P1;PMS_P2;Temp;Humidity;BMP_temperature;BMP_pressure;BME280_temperature;BME280_humidity;BME280_pressure;Samples;Min_cycle;Max_cycle;Signal;HPM_P1;HPM_P2
2021/01/22 00:01:33;;;;;;;13.35;1.98;;;;;;;6.29;68.98;97471.16;4414234;32;20112;-78
2021/01/22 00:03:59;;;;;;;9.15;1.80;;;;;;;6.24;69.17;97471.09;4412802;32;20123;-77
2021/01/22 00:06:25;;;;;;;10.45;2.22;;;;;;;6.19;69.12;97466.22;4412505;32;20411;-78
2021/01/22 00:08:51;;;;;;;15.80;2.00;;;;;;;6.18;69.37;97473.81;4416069;32;20055;-77
2021/01/22 00:11:17;;;;;;;12.43;2.00;;;;;;;6.11;69.55;97477.03;4414980;32;20449;-79
2021/01/22 00:13:42;;;;;;;8.32;1.70;;;;;;;6.22;68.83;97471.56;4413502;32;20707;-79
2021/01/22 00:16:09;;;;;;;14.10;2.28;;;;;;;6.28;68.74;97482.81;4412110;32;20124;-78
2021/01/22 00:18:34;;;;;;;15.90;2.12;;;;;;;6.18;69.39;97481.41;4416605;32;20042;-78
2021/01/22 00:21:01;;;;;;;11.38;2.12;;;;;;;6.10;69.44;97487.41;4415821;32;20074;-79
2021/01/22 00:23:27;;;;;;;12.20;1.98;;;;;;;6.16;69.58;97489.53;4415192;32;20061;-80
2021/01/22 00:25:53;;;;;;;18.92;2.70;;;;;;;6.16;69.44;97501.44;4412777;32;20046;-79
2021/01/22 00:28:19;;;;;;;14.77;2.60;;;;;;;6.29;69.21;97510.22;4416502;32;20025;-78
2021/01/22 00:30:44;;;;;;;9.73;1.62;;;;;;;6.35;68.89;97511.06;4414256;32;20113;-79
2021/01/22 00:33:10;;;;;;;12.70;1.77;;;;;;;6.32;68.69;97500.87;4413380;32;20183;-79
2021/01/22 00:35:36;;;;;;;13.05;2.03;;;;;;;6.31;69.21;97507.72;4415672;32;20018;-78
2021/01/22 00:38:02;;;;;;;15.18;1.87;;;;;;;6.43;68.53;97498.25;4413542;32;20047;-78
2021/01/22 00:40:28;;;;;;;13.10;2.17;;;;;;;6.41;68.38;97491.63;4416101;32;20117;-76
2021/01/22 00:42:54;;;;;;;6.97;1.52;;;;;;;6.44;68.31;97499.78;4416183;32;20038;-78
2021/01/22 00:45:19;;;;;;;8.18;1.40;;;;;;;6.37;67.47;97497.41;4414045;32;20087;-78
2021/01/22 00:47:45;;;;;;;7.72;1.67;;;;;;;6.39;67.64;97505.28;4417742;32;20099;-76
2021/01/22 00:50:11;;;;;;;9.85;1.77;;;;;;;6.39;67.72;97497.69;4413876;32;20034;-77
2021/01/22 00:52:37;;;;;;;11.95;1.98;;;;;;;6.40;67.50;97504.81;4416454;32;20551;-78
2021/01/22 00:55:02;;;;;;;11.73;1.87;;;;;;;6.41;67.90;97509.13;4414875;32;20046;-77
2021/01/22 00:57:28;;;;;;;10.20;1.92;;;;;;;6.30;68.00;97511.00;4415432;32;20060;-77
2021/01/22 00:59:54;;;;;;;5.40;1.90;;;;;;;6.36;68.19;97509.06;4414276;32;20068;-80
2021/01/22 01:02:20;;;;;;;9.27;1.67;;;;;;;6.31;68.46;97518.13;4413059;32;20034;-76
2021/01/22 01:04:45;;;;;;;9.27;2.22;;;;;;;6.35;68.40;97524.28;4415383;32;20132;-79
2021/01/22 01:07:11;;;;;;;9.73;2.10;;;;;;;6.41;68.34;97519.53;4417275;32;20096;-77
2021/01/22 01:09:37;;;;;;;16.25;2.83;;;;;;;6.37;68.53;97514.16;4415308;32;20084;-78
2021/01/22 01:12:03;;;;;;;14.10;2.05;;;;;;;6.30;68.47;97517.38;4417205;32;20022;-77
2021/01/22 01:14:29;;;;;;;9.55;1.83;;;;;;;6.24;68.70;97518.53;4417973;32;20042;-77
2021/01/22 01:16:54;;;;;;;9.93;1.90;;;;;;;6.23;68.65;97515.00;4416163;32;20462;-79
2021/01/22 01:19:20;;;;;;;13.02;2.58;;;;;;;6.24;69.10;97515.75;4417754;32;20113;-78
2021/01/22 01:21:46;;;;;;;7.70;1.90;;;;;;;6.25;69.07;97528.44;4415358;32;20035;-77
2021/01/22 01:24:11;;;;;;;11.77;2.20;;;;;;;6.18;68.77;97526.06;4419829;32;20033;-78
2021/01/22 01:26:37;;;;;;;11.05;2.35;;;;;;;5.96;69.63;97532.88;4416070;32;20093;-78
2021/01/22 01:29:03;;;;;;;10.90;2.42;;;;;;;6.07;69.22;97521.88;4417103;32;20027;-78
2021/01/22 01:31:28;;;;;;;16.42;2.33;;;;;;;6.02;69.56;97525.34;4418074;32;20926;-77
2021/01/22 01:33:54;;;;;;;13.43;3.33;;;;;;;5.96;69.87;97535.66;4416207;32;20098;-77
2021/01/22 01:36:20;;;;;;;14.68;2.70;;;;;;;5.92;70.31;97540.69;4417845;32;20113;-79
2021/01/22 01:38:45;;;;;;;11.98;2.28;;;;;;;5.80;70.72;97535.41;4416451;32;20022;-75
2021/01/22 01:41:11;;;;;;;11.70;2.35;;;;;;;5.84;70.71;97538.78;4414295;32;20507;-75
2021/01/22 01:43:37;;;;;;;15.40;2.47;;;;;;;5.87;70.55;97544.13;4413596;32;20221;-76
2021/01/22 01:46:03;;;;;;;10.32;2.10;;;;;;;5.82;70.82;97544.06;4417298;32;20128;-77
2021/01/22 01:48:29;;;;;;;19.50;2.97;;;;;;;5.93;70.22;97541.44;4414520;32;20578;-76
2021/01/22 01:50:55;;;;;;;8.52;2.42;;;;;;;5.91;70.30;97553.09;4417037;32;20037;-78
2021/01/22 01:53:22;;;;;;;10.88;2.28;;;;;;;5.92;69.92;97553.84;4415615;32;20034;-77
2021/01/22 01:55:48;;;;;;;7.97;1.87;;;;;;;5.77;70.40;97555.88;4417705;32;20079;-77
2021/01/22 01:58:15;;;;;;;16.20;2.05;;;;;;;5.95;69.97;97561.25;4416647;32;20094;-78
2021/01/22 02:00:41;;;;;;;14.70;2.00;;;;;;;5.92;69.86;97563.00;4416453;32;20026;-76
2021/01/22 02:03:07;;;;;;;7.78;2.12;;;;;;;5.95;69.94;97550.09;4418662;32;20184;-77
2021/01/22 02:05:33;;;;;;;13.50;2.72;;;;;;;5.90;70.30;97567.53;4412479;32;20030;-77
2021/01/22 02:07:59;;;;;;;13.77;2.62;;;;;;;5.93;70.35;97566.56;4417476;32;20038;-77
2021/01/22 02:10:25;;;;;;;12.37;2.70;;;;;;;5.90;70.42;97573.88;4414755;32;20081;-78
2021/01/22 02:12:53;;;;;;;14.55;2.60;;;;;;;5.89;70.19;97580.69;4416138;32;20121;-77
2021/01/22 02:15:19;;;;;;;13.32;2.60;;;;;;;5.81;70.46;97582.38;4417592;32;20137;-78
2021/01/22 02:17:46;;;;;;;10.52;2.00;;;;;;;5.88;70.05;97581.19;4414360;32;20427;-79
2021/01/22 02:22:48;;;;;;;14.50;2.65;;;;;;;6.31;69.66;97585.13;3958657;32;15783657;-77
2021/01/22 02:25:15;;;;;;;17.30;2.37;;;;;;;6.31;69.66;97585.13;4438924;32;20038;-77
2021/01/22 02:27:41;;;;;;;14.77;3.45;;;;;;;6.01;70.48;97601.97;4439603;32;20025;-79
2021/01/22 02:30:08;;;;;;;18.10;5.12;;;;;;;6.00;70.97;97594.84;4437819;32;20029;-78
2021/01/22 02:32:36;;;;;;;11.70;2.42;;;;;;;5.90;71.21;97603.81;4439026;32;20046;-77
2021/01/22 02:35:08;;;;;;;13.35;2.50;;;;;;;6.05;70.70;97593.41;4427400;32;20077;-78
2021/01/22 02:37:36;;;;;;;15.13;2.40;;;;;;;5.86;71.41;97595.62;4429300;32;20048;-79
2021/01/22 02:40:07;;;;;;;9.73;2.37;;;;;;;5.82;71.39;97597.06;4428593;32;20061;-78
2021/01/22 02:42:36;;;;;;;18.30;3.00;;;;;;;5.81;71.22;97599.09;4428489;32;20030;-76
2021/01/22 02:45:03;;;;;;;7.85;1.67;;;;;;;5.75;71.45;97611.38;4425916;32;20150;-79
2021/01/22 02:47:29;;;;;;;19.20;2.53;;;;;;;5.82;71.26;97602.66;4428901;32;20041;-78
2021/01/22 02:49:55;;;;;;;9.50;2.00;;;;;;;5.82;71.24;97605.44;4428639;32;20115;-78
2021/01/22 02:52:21;;;;;;;7.75;2.40;;;;;;;5.81;70.96;97620.63;4430977;32;20046;-77
2021/01/22 02:54:50;;;;;;;6.95;2.05;;;;;;;5.76;70.90;97599.75;4429619;32;20042;-77
2021/01/22 03:02:50;;;;;;;10.10;2.30;;;;;;;6.27;70.02;97620.88;4006137;31;15016424;-77
2021/01/22 03:05:18;;;;;;;13.45;2.42;;;;;;;6.27;70.02;97620.88;4467563;32;20107;-78
2021/01/22 03:07:52;;;;;;;20.92;3.17;;;;;;;5.88;70.78;97611.88;4471011;32;20068;-77
2021/01/22 03:10:20;;;;;;;31.70;3.60;;;;;;;5.77;71.03;97608.91;4470715;32;20068;-76
2021/01/22 03:12:48;;;;;;;13.15;3.20;;;;;;;5.82;70.94;97599.84;4455283;32;20025;-76
2021/01/22 03:15:16;;;;;;;15.30;2.53;;;;;;;5.90;70.14;97617.75;4468390;32;20063;-78
2021/01/22 03:17:42;;;;;;;37.53;3.47;;;;;;;5.89;70.48;97610.63;4467992;32;20112;-77
2021/01/22 03:20:13;;;;;;;11.43;2.15;;;;;;;5.86;71.10;97606.78;4468863;32;20025;-76
2021/01/22 03:22:38;;;;;;;9.35;2.12;;;;;;;5.91;71.28;97606.13;4465513;32;20077;-76
2021/01/22 03:25:05;;;;;;;7.57;1.90;;;;;;;5.84;71.31;97614.09;4471285;32;20033;-77
2021/01/22 03:27:30;;;;;;;10.27;2.22;;;;;;;5.71;71.71;97617.16;4471840;32;20021;-77
2021/01/22 03:29:56;;;;;;;22.40;2.67;;;;;;;5.70;72.05;97609.25;4470608;32;20371;-75
2021/01/22 03:32:21;;;;;;;22.00;2.72;;;;;;;5.72;72.21;97634.66;4467182;32;20021;-77
2021/01/22 03:34:47;;;;;;;12.07;2.95;;;;;;;5.62;72.55;97642.34;4469670;32;20037;-76
2021/01/22 03:37:13;;;;;;;13.15;2.60;;;;;;;5.71;72.20;97633.88;4466557;32;20056;-77
2021/01/22 03:39:38;;;;;;;8.68;1.87;;;;;;;5.69;72.20;97644.00;4470646;32;20085;-77
2021/01/22 03:42:05;;;;;;;16.42;1.77;;;;;;;5.66;71.64;97648.53;4466879;32;20530;-76
2021/01/22 03:44:31;;;;;;;8.13;1.67;;;;;;;5.59;71.08;97643.28;4469170;32;20060;-76
2021/01/22 03:46:56;;;;;;;12.23;1.58;;;;;;;5.61;70.55;97645.59;4467571;32;20374;-78
2021/01/22 03:49:22;;;;;;;8.45;1.52;;;;;;;5.50;71.20;97654.53;4463720;32;20083;-77
2021/01/22 03:51:48;;;;;;;7.07;1.23;;;;;;;5.45;71.65;97660.03;4464005;32;20025;-77
2021/01/22 03:54:13;;;;;;;8.23;1.35;;;;;;;5.30;72.25;97637.69;4459532;32;20072;-76
2021/01/22 03:56:39;;;;;;;9.00;1.73;;;;;;;5.37;72.21;97648.47;4463472;32;20096;-76
2021/01/22 03:59:05;;;;;;;9.82;1.55;;;;;;;5.30;72.25;97656.44;4468986;32;21125;-78
2021/01/22 04:01:31;;;;;;;10.93;1.30;;;;;;;5.32;72.19;97659.53;4455240;32;20440;-76
2021/01/22 04:03:57;;;;;;;9.77;1.70;;;;;;;5.34;72.08;97663.38;4474072;32;20067;-75
2021/01/22 04:06:23;;;;;;;8.85;1.65;;;;;;;5.44;72.21;97662.06;4471370;32;20124;-78
2021/01/22 04:08:49;;;;;;;10.88;1.30;;;;;;;5.45;72.25;97648.88;4466196;32;20024;-78
2021/01/22 04:11:15;;;;;;;10.82;1.80;;;;;;;5.46;72.36;97647.63;4471743;32;20081;-77
2021/01/22 04:13:41;;;;;;;6.45;1.02;;;;;;;5.37;72.85;97642.88;4457394;32;20033;-77
2021/01/22 04:16:06;;;;;;;9.07;1.23;;;;;;;5.38;72.84;97644.44;4459171;32;20061;-77
2021/01/22 04:18:32;;;;;;;10.35;1.80;;;;;;;5.36;72.34;97649.72;4460279;32;20024;-77
2021/01/22 04:20:58;;;;;;;9.18;1.52;;;;;;;5.36;71.96;97654.53;4451446;32;20067;-78
2021/01/22 04:23:24;;;;;;;7.03;1.87;;;;;;;5.42;71.76;97658.97;4439092;32;20069;-78
2021/01/22 04:25:49;;;;;;;7.32;1.83;;;;;;;5.42;71.91;97666.56;4456080;32;20473;-76
2021/01/22 04:28:15;;;;;;;14.45;2.10;;;;;;;5.48;71.94;97661.84;4457177;32;20116;-77
2021/01/22 04:30:41;;;;;;;15.10;1.77;;;;;;;5.44;72.38;97650.12;4460007;32;20398;-76
2021/01/22 04:33:06;;;;;;;11.90;2.00;;;;;;;5.51;72.12;97660.91;4459180;32;20067;-78
2021/01/22 04:35:33;;;;;;;15.50;2.00;;;;;;;5.50;72.53;97648.97;4456399;32;20063;-78
2021/01/22 04:37:59;;;;;;;12.52;1.70;;;;;;;5.50;72.55;97671.28;4454672;32;20060;-77
2021/01/22 04:40:26;;;;;;;16.45;2.53;;;;;;;5.56;72.40;97666.56;4463430;32;20129;-76
2021/01/22 04:42:54;;;;;;;12.55;2.30;;;;;;;5.50;72.17;97651.00;4458062;32;20090;-77
2021/01/22 04:45:20;;;;;;;10.40;2.70;;;;;;;5.54;72.03;97669.09;4457906;32;20077;-77
2021/01/22 04:47:46;;;;;;;9.32;2.87;;;;;;;5.52;72.07;97670.78;4462242;32;20522;-78
2021/01/22 04:50:15;;;;;;;11.20;2.30;;;;;;;5.56;72.01;97666.56;4458098;32;20045;-77
2021/01/22 04:52:44;;;;;;;14.93;2.33;;;;;;;5.53;72.36;97667.53;4456709;32;20048;-76
2021/01/22 04:55:15;;;;;;;11.02;2.78;;;;;;;5.61;72.25;97662.34;4454406;32;20041;-78
2021/01/22 04:57:43;;;;;;;15.75;3.05;;;;;;;5.65;72.33;97657.38;4463907;32;20075;-76
2021/01/22 05:00:10;;;;;;;11.07;3.28;;;;;;;5.66;72.66;97642.94;4454166;32;20029;-75
2021/01/22 05:02:37;;;;;;;16.58;3.75;;;;;;;5.62;73.21;97661.87;4456681;32;20064;-78
2021/01/22 05:05:04;;;;;;;15.55;3.17;;;;;;;5.69;73.10;97663.50;4454258;32;20098;-77
2021/01/22 05:07:30;;;;;;;15.70;3.67;;;;;;;5.90;71.88;97660.37;4457795;32;20081;-76
2021/01/22 05:09:57;;;;;;;13.52;3.55;;;;;;;5.67;72.48;97658.41;4454025;32;20076;-77
2021/01/22 05:12:22;;;;;;;16.73;4.28;;;;;;;5.68;72.76;97657.16;4455238;32;20497;-77
2021/01/22 05:14:48;;;;;;;13.35;3.55;;;;;;;5.68;72.89;97668.31;4456773;32;20025;-78
2021/01/22 05:17:14;;;;;;;17.02;3.50;;;;;;;5.75;72.57;97661.59;4458358;32;20092;-78
2021/01/22 05:19:41;;;;;;;16.50;3.35;;;;;;;5.72;72.88;97662.56;4457529;32;20052;-76
2021/01/22 05:22:12;;;;;;;16.58;4.12;;;;;;;5.68;72.93;97662.00;4456968;32;20071;-77
2021/01/22 05:24:38;;;;;;;11.35;3.15;;;;;;;5.80;71.79;97664.47;4443531;32;20085;-77
2021/01/22 05:27:08;;;;;;;15.85;4.00;;;;;;;5.83;72.48;97680.28;4457230;32;20068;-78
2021/01/22 05:29:35;;;;;;;13.77;2.90;;;;;;;5.71;73.56;97672.94;4453311;32;20088;-77
2021/01/22 05:32:03;;;;;;;10.90;2.80;;;;;;;5.90;73.02;97668.75;4454293;32;20085;-76
2021/01/22 05:34:45;;;;;;;7.05;2.78;;;;;;;5.60;72.86;97681.12;4451186;32;20078;-76
2021/01/22 05:37:12;;;;;;;6.25;2.55;;;;;;;5.49;71.60;97683.69;4456888;32;20041;-75
2021/01/22 05:39:38;;;;;;;12.30;2.80;;;;;;;5.51;72.10;97692.34;4452478;32;20056;-75
2021/01/22 05:42:04;;;;;;;13.48;3.22;;;;;;;5.45;72.43;97694.25;4460580;32;20564;-76
2021/01/22 05:44:30;;;;;;;7.28;3.42;;;;;;;5.64;71.82;97689.28;4462232;32;20029;-76
2021/01/22 05:47:11;;;;;;;7.18;3.30;;;;;;;5.43;72.63;97693.97;4457749;32;20029;-76
2021/01/22 05:49:59;;;;;;;17.30;3.75;;;;;;;5.49;72.52;97686.47;4455860;32;20215;-75
2021/01/22 05:52:25;;;;;;;12.23;3.15;;;;;;;5.48;72.25;97678.59;4460041;32;20076;-78
2021/01/22 05:54:51;;;;;;;17.45;3.47;;;;;;;5.49;72.12;97686.47;4452825;32;20106;-77
2021/01/22 05:57:17;;;;;;;14.73;3.42;;;;;;;5.38;72.66;97685.50;4462282;32;20087;-77
2021/01/22 05:59:43;;;;;;;16.60;3.10;;;;;;;5.47;72.99;97713.31;4452435;32;20075;-78
2021/01/22 06:02:32;;;;;;;15.68;2.92;;;;;;;5.64;72.65;97695.62;4460413;32;20133;-77
2021/01/22 06:05:15;;;;;;;13.73;2.92;;;;;;;5.60;73.09;97711.00;4455540;32;20041;-78
2021/01/22 06:07:43;;;;;;;10.27;2.95;;;;;;;5.62;72.96;97717.66;4456736;32;20091;-78
2021/01/22 06:12:53;;;;;;;14.15;3.00;;;;;;;6.02;72.38;97729.06;3990207;32;15024438;-77
2021/01/22 06:15:22;;;;;;;16.52;3.08;;;;;;;6.02;72.38;97729.06;4446143;32;20029;-78
2021/01/22 06:17:51;;;;;;;14.98;2.97;;;;;;;5.54;73.09;97735.25;4442958;32;20021;-77
2021/01/22 06:20:22;;;;;;;12.73;2.35;;;;;;;5.62;72.15;97728.81;4443264;32;20014;-78
2021/01/22 06:25:42;;;;;;;22.35;2.83;;;;;;;6.12;69.78;97722.16;4004474;31;15016048;-77
2021/01/22 06:28:11;;;;;;;9.57;2.30;;;;;;;6.12;69.78;97722.16;4453914;32;20100;-76
2021/01/22 06:30:38;;;;;;;17.25;2.83;;;;;;;5.89;70.02;97722.22;4454981;32;20096;-77
2021/01/22 06:33:06;;;;;;;12.85;1.80;;;;;;;5.89;70.07;97733.41;4450091;32;20036;-78
2021/01/22 06:35:34;;;;;;;20.12;2.40;;;;;;;5.86;70.07;97728.81;4433560;32;20054;-77
2021/01/22 06:38:01;;;;;;;11.90;2.35;;;;;;;5.89;70.17;97741.75;4433456;32;20057;-78
2021/01/22 06:40:27;;;;;;;22.75;2.47;;;;;;;5.91;69.91;97769.97;4436330;32;20021;-76
2021/01/22 06:42:54;;;;;;;14.35;2.78;;;;;;;5.83;70.12;97757.66;4437930;32;20081;-78
2021/01/22 06:45:22;;;;;;;18.08;2.33;;;;;;;5.90;70.14;97758.03;4422796;32;20168;-77
2021/01/22 06:48:06;;;;;;;13.90;2.30;;;;;;;5.98;70.17;97764.78;4435188;32;20064;-76
2021/01/22 06:50:34;;;;;;;13.13;2.03;;;;;;;6.00;70.14;97764.31;4438263;32;20079;-78
2021/01/22 06:58:30;;;;;;;13.57;2.30;;;;;;;6.33;69.81;97797.63;4008559;31;15015345;-77
2021/01/22 07:00:57;;;;;;;20.37;2.22;;;;;;;5.84;70.55;97776.72;4463881;32;20096;-77
2021/01/22 07:09:12;;;;;;;14.00;2.75;;;;;;;6.16;70.75;97814.09;3989917;32;15025624;-77
2021/01/22 07:11:56;;;;;;;13.23;2.70;;;;;;;6.16;70.75;97814.09;4445182;32;20060;-76
2021/01/22 07:14:43;;;;;;;14.23;2.67;;;;;;;5.75;71.08;97790.72;4446369;32;20098;-78
2021/01/22 07:17:29;;;;;;;11.25;2.17;;;;;;;5.72;71.24;97785.31;4442610;32;20052;-77
2021/01/22 07:20:12;;;;;;;7.25;2.37;;;;;;;5.65;71.33;97805.19;4442249;32;20081;-78
2021/01/22 07:22:55;;;;;;;13.68;2.53;;;;;;;5.64;71.00;97798.84;4442327;32;20057;-78
2021/01/22 07:28:22;;;;;;;17.70;3.00;;;;;;;6.04;70.64;97815.13;3987328;32;15022858;-78
2021/01/22 07:30:48;;;;;;;16.45;3.20;;;;;;;6.04;70.64;97815.13;4444289;32;20077;-77
2021/01/22 07:33:35;;;;;;;11.80;3.15;;;;;;;5.60;71.31;97820.56;4442424;32;20029;-76
2021/01/22 07:38:41;;;;;;;11.70;2.85;;;;;;;6.13;69.84;97840.94;3988698;32;15026934;-79
2021/01/22 07:41:09;;;;;;;11.93;3.25;;;;;;;6.13;69.84;97840.94;4440730;32;20037;-77
2021/01/22 07:43:35;;;;;;;14.82;4.15;;;;;;;5.69;70.99;97836.47;4439638;32;20092;-79
2021/01/22 07:46:10;;;;;;;16.10;3.87;;;;;;;5.72;71.03;97838.31;4434886;32;20113;-78
2021/01/22 07:48:36;;;;;;;14.98;3.70;;;;;;;5.76;71.08;97845.25;4439409;32;20033;-80
2021/01/22 07:51:30;;;;;;;8.77;3.35;;;;;;;5.82;70.76;97860.13;4442603;32;20064;-79
2021/01/22 07:53:56;;;;;;;14.32;3.50;;;;;;;5.77;70.88;97854.41;4436275;32;20063;-79
2021/01/22 07:56:23;;;;;;;16.70;3.87;;;;;;;5.81;70.42;97866.94;4440320;32;20022;-78
2021/01/22 07:58:49;;;;;;;21.98;3.47;;;;;;;5.78;70.59;97870.66;4433899;32;20176;-79
2021/01/22 08:01:23;;;;;;;15.98;3.25;;;;;;;5.73;70.92;97876.88;4438403;32;20642;-79
2021/01/22 08:03:49;;;;;;;25.63;3.50;;;;;;;5.88;70.33;97876.97;4439123;32;20041;-79
2021/01/22 08:06:15;;;;;;;13.80;2.97;;;;;;;5.82;70.40;97876.06;4433140;32;20378;-79
2021/01/22 08:08:40;;;;;;;11.98;3.08;;;;;;;5.87;70.54;97886.59;4440976;32;20319;-78
2021/01/22 08:11:22;;;;;;;14.95;2.80;;;;;;;5.83;70.94;97883.22;4434688;32;20320;-78
2021/01/22 08:13:48;;;;;;;12.05;3.05;;;;;;;5.89;70.13;97879.28;4428867;32;20029;-78
2021/01/22 08:16:22;;;;;;;14.55;2.60;;;;;;;5.95;70.24;97884.97;4430536;32;20442;-78
2021/01/22 08:18:48;;;;;;;17.35;3.25;;;;;;;5.96;70.34;97895.66;4432705;32;20052;-79
2021/01/22 08:21:14;;;;;;;12.05;3.37;;;;;;;6.01;70.32;97897.78;4436362;32;20468;-79
2021/01/22 08:23:43;;;;;;;11.77;2.85;;;;;;;5.99;70.91;97900.28;4434377;32;20056;-78
2021/01/22 08:26:11;;;;;;;15.63;3.15;;;;;;;5.98;71.19;97887.59;4434374;32;20363;-77
2021/01/22 08:28:38;;;;;;;16.15;2.62;;;;;;;6.09;70.83;97889.84;4434580;32;20100;-79
2021/01/22 08:31:07;;;;;;;13.95;2.80;;;;;;;6.06;70.64;97894.38;4435435;32;20057;-78
2021/01/22 08:33:34;;;;;;;10.52;2.78;;;;;;;6.12;70.38;97891.66;4430752;32;20034;-77
2021/01/22 08:35:59;;;;;;;13.27;2.90;;;;;;;6.09;70.53;97906.59;4419985;32;20104;-78
2021/01/22 08:38:25;;;;;;;18.65;2.95;;;;;;;6.09;70.50;97906.59;4419942;32;20038;-77
2021/01/22 08:40:51;;;;;;;15.13;2.10;;;;;;;6.07;70.88;97909.06;4425484;32;20507;-78
2021/01/22 08:43:17;;;;;;;19.58;3.42;;;;;;;6.10;70.26;97911.69;4420842;32;20037;-78
2021/01/22 08:46:05;;;;;;;15.15;3.75;;;;;;;6.20;70.08;97925.59;4414493;32;20056;-78
2021/01/22 08:48:31;;;;;;;15.30;2.60;;;;;;;6.10;70.87;97927.66;4417850;32;20120;-78
2021/01/22 08:50:58;;;;;;;18.02;2.53;;;;;;;6.05;70.84;97934.66;4406769;32;20034;-78
2021/01/22 08:53:24;;;;;;;11.65;2.22;;;;;;;6.10;70.83;97931.22;4408681;32;20026;-76
2021/01/22 08:55:49;;;;;;;13.57;2.47;;;;;;;6.10;70.23;97942.41;4404404;32;20476;-79
2021/01/22 08:58:15;;;;;;;12.43;2.35;;;;;;;6.02;70.45;97954.41;4400847;32;20056;-76
2021/01/22 09:00:41;;;;;;;18.23;2.40;;;;;;;6.09;70.36;97945.66;4407587;32;20085;-77
2021/01/22 09:03:23;;;;;;;13.55;2.55;;;;;;;6.10;70.15;97950.78;4411120;32;20050;-79
2021/01/22 09:05:50;;;;;;;15.43;2.62;;;;;;;6.22;69.54;97951.00;4410263;32;20022;-78
2021/01/22 09:08:15;;;;;;;13.38;2.53;;;;;;;6.27;69.53;97941.97;4407795;32;20084;-78
2021/01/22 09:10:45;;;;;;;13.23;2.42;;;;;;;6.21;69.93;97946.66;4409473;32;20045;-79
2021/01/22 09:16:09;;;;;;;11.40;2.60;;;;;;;6.48;68.86;97977.97;4002204;31;15018405;-80
2021/01/22 09:18:34;;;;;;;14.57;2.42;;;;;;;6.45;69.02;97973.31;4451211;32;20159;-80
2021/01/22 09:21:03;;;;;;;11.38;1.98;;;;;;;6.56;68.97;97978.38;4457001;32;20138;-78
2021/01/22 09:23:29;;;;;;;15.23;1.98;;;;;;;6.68;68.66;97997.66;4460430;32;20045;-77
2021/01/22 09:25:56;;;;;;;11.30;2.25;;;;;;;6.63;67.93;98003.87;4458245;32;20055;-77
2021/01/22 09:28:22;;;;;;;11.52;2.47;;;;;;;6.69;68.27;98015.94;4460221;32;20429;-77
2021/01/22 09:30:47;;;;;;;13.15;2.17;;;;;;;6.81;68.19;98009.31;4461983;32;20099;-77
2021/01/22 09:33:14;;;;;;;8.48;1.98;;;;;;;6.79;67.83;98017.44;4444090;32;20067;-78
2021/01/22 09:35:40;;;;;;;11.70;2.72;;;;;;;6.84;68.29;98013.22;4440374;32;20431;-79
2021/01/22 09:38:06;;;;;;;7.37;1.80;;;;;;;6.91;67.39;98030.38;4442626;32;20144;-78
2021/01/22 09:40:32;;;;;;;12.25;2.65;;;;;;;6.82;67.09;98021.28;4442117;32;20041;-78
2021/01/22 09:42:58;;;;;;;17.73;1.95;;;;;;;6.95;66.59;98041.34;4441030;32;20030;-79
2021/01/22 09:45:24;;;;;;;11.40;1.83;;;;;;;6.94;66.75;98046.19;4444664;32;20105;-76
2021/01/22 09:47:49;;;;;;;14.18;2.20;;;;;;;6.90;66.78;98042.03;4438952;32;20064;-80
2021/01/22 09:50:17;;;;;;;10.75;2.10;;;;;;;7.00;67.03;98047.03;4442741;32;20075;-81
2021/01/22 09:52:44;;;;;;;12.02;1.90;;;;;;;7.05;66.46;98057.56;4443182;32;20385;-83
2021/01/22 09:57:47;;;;;;;14.52;2.05;;;;;;;7.18;66.02;98063.66;3987539;32;15032514;-77
2021/01/22 10:00:15;;;;;;;13.18;1.80;;;;;;;7.05;65.51;98073.56;4441277;32;20055;-79
2021/01/22 10:02:41;;;;;;;15.32;1.92;;;;;;;7.04;65.63;98069.25;4440195;32;20057;-77
2021/01/22 10:05:07;;;;;;;20.73;2.60;;;;;;;6.92;65.90;98081.44;4443514;32;20080;-80
2021/01/22 10:07:33;;;;;;;9.27;2.30;;;;;;;6.89;65.89;98071.22;4442427;32;20072;-81
2021/01/22 10:09:59;;;;;;;9.75;1.80;;;;;;;6.81;65.51;98084.03;4446309;32;20457;-79
2021/01/22 10:12:25;;;;;;;16.52;2.42;;;;;;;7.06;65.85;98083.53;4449163;32;20065;-76
2021/01/22 10:14:51;;;;;;;11.38;2.60;;;;;;;6.96;65.42;98090.44;4456287;32;20100;-77
2021/01/22 10:17:16;;;;;;;8.48;1.98;;;;;;;7.04;65.45;98097.97;4453375;32;20021;-78
2021/01/22 10:19:42;;;;;;;11.30;2.22;;;;;;;7.18;65.07;98107.66;4449122;32;20069;-79
2021/01/22 10:22:08;;;;;;;16.33;3.35;;;;;;;7.30;64.89;98106.62;4436907;32;20100;-76
2021/01/22 10:24:33;;;;;;;11.55;2.00;;;;;;;7.43;64.24;98118.31;4440586;32;20100;-74
2021/01/22 10:26:59;;;;;;;12.75;2.12;;;;;;;7.65;63.96;98125.09;4441813;32;20077;-78
2021/01/22 10:29:25;;;;;;;12.35;2.83;;;;;;;7.73;63.41;98123.44;4440741;32;20089;-78
2021/01/22 10:31:51;;;;;;;16.75;2.53;;;;;;;7.74;63.08;98127.00;4441806;32;20153;-79
2021/01/22 10:34:16;;;;;;;11.98;2.10;;;;;;;7.83;62.50;98126.91;4433718;32;20100;-77
2021/01/22 10:36:42;;;;;;;11.18;3.45;;;;;;;7.90;62.40;98118.13;4424101;32;20087;-78
2021/01/22 10:39:09;;;;;;;12.10;2.50;;;;;;;8.05;62.07;98119.66;4427347;32;20441;-78
2021/01/22 10:41:35;;;;;;;17.15;2.92;;;;;;;8.18;61.71;98134.13;4424132;32;20247;-77
2021/01/22 10:44:01;;;;;;;11.85;2.15;;;;;;;8.24;61.08;98120.22;4411124;32;20061;-77
2021/01/22 10:46:28;;;;;;;11.45;1.90;;;;;;;8.34;60.55;98129.31;4418641;32;20116;-77
2021/01/22 10:48:54;;;;;;;14.63;2.28;;;;;;;8.33;60.37;98141.75;4415970;32;20138;-79
2021/01/22 10:51:20;;;;;;;15.18;2.45;;;;;;;8.34;60.21;98138.47;4415615;32;20053;-78
2021/01/22 10:53:46;;;;;;;16.87;2.83;;;;;;;8.47;59.95;98152.16;4420424;32;20061;-78
2021/01/22 10:56:11;;;;;;;11.88;3.03;;;;;;;8.63;59.39;98155.22;4425836;32;20072;-78
2021/01/22 10:58:38;;;;;;;42.47;14.93;;;;;;;8.60;60.09;98147.78;4422663;32;21727;-81
2021/01/22 11:01:04;;;;;;;9.35;2.30;;;;;;;8.81;60.51;98145.78;4427167;32;20489;-76
2021/01/22 11:03:30;;;;;;;12.65;2.25;;;;;;;8.67;59.24;98158.59;4424309;32;20061;-76
2021/01/22 11:05:56;;;;;;;15.73;3.30;;;;;;;8.80;59.46;98164.63;4425503;32;20068;-81
2021/01/22 11:08:22;;;;;;;22.73;3.33;;;;;;;8.89;58.58;98155.31;4421322;32;20411;-79
2021/01/22 11:10:48;;;;;;;15.93;2.83;;;;;;;8.93;58.86;98151.03;4414433;32;20115;-77
2021/01/22 11:13:14;;;;;;;10.32;1.90;;;;;;;8.86;58.48;98156.28;4413517;32;20083;-77
2021/01/22 11:15:40;;;;;;;13.85;1.95;;;;;;;8.77;58.26;98154.38;4414700;32;20465;-76
2021/01/22 11:18:05;;;;;;;11.82;2.30;;;;;;;8.79;58.16;98154.69;4415742;32;20077;-77
2021/01/22 11:20:31;;;;;;;11.20;2.20;;;;;;;8.76;58.41;98143.66;4417060;32;20411;-78
2021/01/22 11:22:57;;;;;;;13.68;2.97;;;;;;;8.80;58.02;98149.84;4416694;32;20100;-76
2021/01/22 11:25:22;;;;;;;10.05;1.90;;;;;;;8.79;58.46;98162.31;4414922;32;20038;-76
2021/01/22 11:27:49;;;;;;;10.63;1.73;;;;;;;8.86;58.00;98159.88;4408197;32;20296;-77
2021/01/22 11:30:15;;;;;;;11.50;1.80;;;;;;;8.85;57.78;98163.94;4426062;32;20148;-76
2021/01/22 11:32:41;;;;;;;11.50;2.10;;;;;;;8.71;57.98;98155.59;4427295;32;20007;-76
2021/01/22 11:35:09;;;;;;;15.27;1.95;;;;;;;8.72;57.76;98165.53;4418004;32;20049;-76
2021/01/22 11:37:37;;;;;;;7.35;1.90;;;;;;;8.73;58.50;98161.47;4411745;32;20476;-79
2021/01/22 11:40:04;;;;;;;14.18;2.33;;;;;;;8.76;58.30;98163.28;4411565;32;20466;-77
2021/01/22 11:42:30;;;;;;;11.35;2.25;;;;;;;8.86;57.98;98154.25;4415720;32;20375;-75
2021/01/22 11:44:55;;;;;;;14.02;2.53;;;;;;;8.98;58.02;98153.16;4413338;32;20070;-75
2021/01/22 11:47:21;;;;;;;9.82;1.87;;;;;;;9.10;56.35;98151.25;4415122;32;20260;-77
2021/01/22 11:49:47;;;;;;;11.77;1.60;;;;;;;8.98;56.42;98155.19;4414444;32;20076;-76
2021/01/22 11:52:13;;;;;;;14.73;2.20;;;;;;;8.89;56.99;98155.31;4416630;32;20054;-75
2021/01/22 11:54:38;;;;;;;11.45;1.75;;;;;;;8.94;56.42;98158.22;4416145;32;20042;-76
2021/01/22 11:57:06;;;;;;;10.98;2.05;;;;;;;8.92;57.14;98138.28;4416321;32;20030;-77
2021/01/22 11:59:33;;;;;;;11.88;1.80;;;;;;;8.87;56.94;98149.44;4417199;32;20391;-79
2021/01/22 12:01:59;;;;;;;8.50;1.65;;;;;;;8.83;56.14;98154.47;4414538;32;20136;-79
2021/01/22 12:04:25;;;;;;;11.12;2.75;;;;;;;8.68;56.99;98162.16;4414110;32;20034;-78
2021/01/22 12:06:51;;;;;;;10.52;1.87;;;;;;;8.66;57.15;98159.84;4415727;32;20079;-78
2021/01/22 12:09:17;;;;;;;13.65;2.75;;;;;;;8.61;57.39;98171.75;4415667;32;20066;-77
2021/01/22 12:11:43;;;;;;;11.40;2.30;;;;;;;8.55;58.25;98176.50;4414116;32;20043;-76